Time;durP1;ratioP1;P1;durP2;ratioP2;P2;SDS_P1;SDS_P2;PMS_P1;PMS_P2;Temp;Humidity;BMP_temperature;BMP_pressure;BME280_temperature;BME280_humidity;BME280_pressure;Samples;Min_cycle;Max_cycle;Signal;HPM_P1;HPM_P2
2021/06/05 00:01:49;;;;;;;128.13;76.13;;;17.90;99.90;;;;;;5052068;28;20115;-87
2021/06/05 00:04:15;;;;;;;137.85;77.88;;;17.90;99.90;;;;;;5053154;28;20029;-88
2021/06/05 00:06:41;;;;;;;140.27;82.65;;;17.70;99.90;;;;;;5052547;28;20035;-88
2021/06/05 00:09:08;;;;;;;155.20;85.43;;;17.60;99.90;;;;;;5052767;28;20028;-88
2021/06/05 00:11:35;;;;;;;164.43;88.88;;;17.60;99.90;;;;;;5053221;28;20123;-88
2021/06/05 00:14:06;;;;;;;158.77;86.07;;;17.60;99.90;;;;;;5052502;28;20017;-88
2021/06/05 00:16:51;;;;;;;158.80;86.55;;;17.50;99.90;;;;;;5052765;28;20469;-88
2021/06/05 00:19:19;;;;;;;167.73;88.25;;;17.50;99.90;;;;;;5052852;28;20395;-88
2021/06/05 00:21:46;;;;;;;168.30;92.00;;;17.30;99.90;;;;;;5052669;28;20029;-88
2021/06/05 00:24:13;;;;;;;155.18;85.50;;;17.20;99.90;;;;;;5052680;28;20523;-88
2021/06/05 00:26:39;;;;;;;185.32;95.28;;;17.10;99.90;;;;;;5052687;28;20025;-87
2021/06/05 00:29:05;;;;;;;166.68;90.97;;;17.10;99.90;;;;;;5052717;28;20390;-88
2021/06/05 00:31:32;;;;;;;184.10;93.65;;;17.00;99.90;;;;;;5052713;28;20033;-88
2021/06/05 00:33:58;;;;;;;172.65;89.93;;;17.10;99.90;;;;;;5052684;28;20021;-88
2021/06/05 00:36:24;;;;;;;161.25;88.70;;;17.10;99.90;;;;;;5052550;28;20535;-88
2021/06/05 00:38:52;;;;;;;160.55;88.20;;;17.10;99.90;;;;;;5052635;28;20470;-88
2021/06/05 00:41:19;;;;;;;170.95;89.32;;;17.10;99.90;;;;;;5053237;28;20028;-88
2021/06/05 00:43:47;;;;;;;162.73;87.93;;;17.00;99.90;;;;;;5053574;28;20057;-88
2021/06/05 00:46:16;;;;;;;161.07;89.07;;;17.00;99.90;;;;;;5053667;28;20041;-88
2021/06/05 00:48:41;;;;;;;161.65;92.93;;;16.90;99.90;;;;;;5052445;28;20025;-88
2021/06/05 00:51:08;;;;;;;151.10;87.93;;;16.80;99.90;;;;;;5052987;28;20470;-88
2021/06/05 00:53:35;;;;;;;160.02;91.03;;;16.80;99.90;;;;;;5054718;28;20158;-89
2021/06/05 00:56:03;;;;;;;160.68;89.13;;;16.80;99.90;;;;;;5054475;28;20032;-88
2021/06/05 00:58:30;;;;;;;158.77;87.30;;;16.80;99.90;;;;;;5053635;28;20025;-88
2021/06/05 01:01:00;;;;;;;144.77;86.55;;;16.80;99.90;;;;;;5052366;28;20478;-88
2021/06/05 01:03:27;;;;;;;144.85;83.13;;;16.70;99.90;;;;;;5052348;28;20032;-89
2021/06/05 01:05:57;;;;;;;143.60;82.85;;;16.70;99.90;;;;;;5054991;28;20060;-87
2021/06/05 01:08:36;;;;;;;140.98;81.35;;;16.50;99.90;;;;;;5053275;28;20051;-87
2021/06/05 01:11:23;;;;;;;134.60;81.18;;;16.60;99.90;;;;;;5052362;28;20029;-88
2021/06/05 01:14:13;;;;;;;139.45;81.00;;;16.50;99.90;;;;;;5055171;28;20025;-87
2021/06/05 01:16:42;;;;;;;125.82;75.35;;;16.50;99.90;;;;;;5055916;28;20376;-88
2021/06/05 01:19:30;;;;;;;128.73;79.68;;;16.40;99.90;;;;;;5055468;28;20083;-88
2021/06/05 01:22:33;;;;;;;124.15;76.55;;;16.30;99.90;;;;;;5056084;28;20028;-89
2021/06/05 01:25:14;;;;;;;126.32;74.47;;;16.20;99.90;;;;;;5056001;28;20051;-89
2021/06/05 01:27:44;;;;;;;124.15;75.60;;;16.20;99.90;;;;;;5056122;28;20040;-89
2021/06/05 01:30:26;;;;;;;121.50;78.78;;;16.20;99.90;;;;;;5056008;28;20025;-88
2021/06/05 01:32:52;;;;;;;126.13;79.82;;;16.30;99.90;;;;;;5055908;28;20612;-89
2021/06/05 01:35:21;;;;;;;133.15;80.60;;;16.20;99.90;;;;;;5055674;28;20017;-89
2021/06/05 01:37:47;;;;;;;123.85;80.32;;;16.20;99.90;;;;;;5056029;28;20383;-88
2021/06/05 01:40:14;;;;;;;131.93;82.60;;;16.30;99.90;;;;;;5055864;28;20035;-88
2021/06/05 01:42:41;;;;;;;127.70;82.95;;;16.20;99.90;;;;;;5056244;28;20397;-87
2021/06/05 01:45:13;;;;;;;127.03;81.68;;;16.20;99.90;;;;;;5054740;28;20060;-87
2021/06/05 01:47:39;;;;;;;125.00;82.97;;;16.20;99.90;;;;;;5054666;28;20397;-86
2021/06/05 01:50:07;;;;;;;126.30;84.65;;;16.20;99.90;;;;;;5055125;28;20116;-86
2021/06/05 01:52:35;;;;;;;121.28;83.22;;;16.20;99.90;;;;;;5054952;28;20036;-87
2021/06/05 01:55:11;;;;;;;120.60;81.75;;;16.20;99.90;;;;;;5055397;28;20047;-86
2021/06/05 01:57:41;;;;;;;120.78;81.65;;;16.20;99.90;;;;;;5055337;28;20112;-86
2021/06/05 02:00:15;;;;;;;118.07;79.25;;;16.10;99.90;;;;;;5055219;28;20797;-86
2021/06/05 02:02:40;;;;;;;123.72;82.55;;;16.10;99.90;;;;;;5056226;28;20394;-86
2021/06/05 02:05:08;;;;;;;113.55;77.80;;;16.10;99.90;;;;;;5055455;28;20029;-86
2021/06/05 02:07:34;;;;;;;119.53;79.05;;;16.10;99.90;;;;;;5054863;28;20504;-86
2021/06/05 02:09:59;;;;;;;119.35;80.82;;;16.10;99.90;;;;;;5054992;28;20056;-87
2021/06/05 02:12:31;;;;;;;122.38;78.80;;;16.00;99.90;;;;;;5056184;28;20489;-86
2021/06/05 02:15:04;;;;;;;114.25;78.38;;;16.00;99.90;;;;;;5054760;28;20497;-86
2021/06/05 02:17:32;;;;;;;119.35;77.80;;;16.10;99.90;;;;;;5054921;28;20028;-86
2021/06/05 02:20:09;;;;;;;119.22;75.22;;;16.00;99.90;;;;;;5054655;28;20488;-86
2021/06/05 02:22:36;;;;;;;124.05;78.85;;;16.00;99.90;;;;;;5055382;28;20473;-88
2021/06/05 02:25:05;;;;;;;118.93;76.88;;;16.00;99.90;;;;;;5053284;28;20048;-87
2021/06/05 02:27:32;;;;;;;116.38;78.40;;;16.00;99.90;;;;;;5054928;28;20094;-87
2021/06/05 02:29:59;;;;;;;115.03;75.43;;;16.00;99.90;;;;;;5055100;28;20029;-87
2021/06/05 02:32:28;;;;;;;116.13;72.65;;;16.00;99.90;;;;;;5054811;28;20079;-87
2021/06/05 02:34:55;;;;;;;111.85;70.18;;;16.00;99.90;;;;;;5055966;28;20029;-87
2021/06/05 02:37:25;;;;;;;114.05;66.50;;;16.00;99.90;;;;;;5054788;28;20108;-88
2021/06/05 02:39:56;;;;;;;103.57;64.05;;;15.90;99.90;;;;;;5054415;28;20043;-88
2021/06/05 02:42:24;;;;;;;101.78;63.50;;;15.90;99.90;;;;;;5054377;28;20117;-87
2021/06/05 02:44:54;;;;;;;108.30;63.10;;;15.90;99.90;;;;;;5054056;28;20036;-88
2021/06/05 02:47:22;;;;;;;98.68;63.15;;;15.90;99.90;;;;;;5054047;28;20024;-88
2021/06/05 02:49:48;;;;;;;101.75;59.80;;;15.90;99.90;;;;;;5055768;28;20025;-87
2021/06/05 02:52:31;;;;;;;85.90;56.55;;;15.90;99.90;;;;;;5053809;28;20025;-88
2021/06/05 02:55:14;;;;;;;82.85;53.28;;;15.90;99.90;;;;;;5054160;28;20021;-87
2021/06/05 02:57:40;;;;;;;70.82;48.45;;;16.00;99.90;;;;;;5054072;28;20708;-88
2021/06/05 03:00:16;;;;;;;64.47;46.47;;;15.90;99.90;;;;;;5053726;28;20029;-88
2021/06/05 03:02:42;;;;;;;60.42;45.03;;;15.90;99.90;;;;;;5053896;28;20116;-88
2021/06/05 03:05:08;;;;;;;61.47;42.38;;;15.80;99.90;;;;;;5054074;28;20060;-87
2021/06/05 03:07:34;;;;;;;64.32;43.65;;;15.80;99.90;;;;;;5054157;28;20028;-88
2021/06/05 03:10:00;;;;;;;62.47;42.05;;;15.90;99.90;;;;;;5053994;28;20025;-87
2021/06/05 03:12:26;;;;;;;52.67;39.65;;;15.90;99.90;;;;;;5053865;28;20432;-87
2021/06/05 03:14:52;;;;;;;58.53;36.10;;;15.90;99.90;;;;;;5053953;28;20044;-87
2021/06/05 03:17:18;;;;;;;52.83;35.38;;;15.90;99.90;;;;;;5053693;28;20390;-87
2021/06/05 03:19:45;;;;;;;52.72;35.75;;;15.90;99.90;;;;;;5053667;28;20028;-88
2021/06/05 03:22:10;;;;;;;55.42;36.00;;;16.00;99.90;;;;;;5053640;28;20033;-88
2021/06/05 03:24:36;;;;;;;48.58;34.85;;;15.90;99.90;;;;;;5053086;28;20099;-87
2021/06/05 03:27:02;;;;;;;47.17;34.97;;;15.90;99.90;;;;;;5053888;28;20074;-87
2021/06/05 03:29:29;;;;;;;47.40;35.55;;;16.00;99.90;;;;;;5053668;28;20122;-87
2021/06/05 03:31:56;;;;;;;44.53;33.42;;;16.00;99.90;;;;;;5054510;28;20128;-87
2021/06/05 03:34:22;;;;;;;44.75;31.48;;;16.00;99.90;;;;;;5054184;28;20028;-87
2021/06/05 03:36:48;;;;;;;38.38;30.58;;;15.90;99.90;;;;;;5054236;28;20055;-88
2021/06/05 03:39:14;;;;;;;45.17;33.63;;;15.90;99.90;;;;;;5053969;28;20021;-88
2021/06/05 03:41:41;;;;;;;43.70;31.95;;;15.90;99.90;;;;;;5053934;28;20047;-88
2021/06/05 03:44:06;;;;;;;42.92;32.75;;;16.00;99.90;;;;;;5053375;28;20029;-88
2021/06/05 03:46:33;;;;;;;41.92;31.75;;;15.90;99.90;;;;;;5054450;28;20032;-87
2021/06/05 03:48:58;;;;;;;48.50;32.70;;;15.90;99.90;;;;;;5053242;28;20033;-88
2021/06/05 03:51:24;;;;;;;46.58;31.58;;;15.80;99.90;;;;;;5053023;28;20036;-87
2021/06/05 03:53:50;;;;;;;44.00;32.20;;;15.80;99.90;;;;;;5053293;28;20021;-87
2021/06/05 03:56:17;;;;;;;43.88;32.05;;;15.70;99.90;;;;;;5053370;28;20025;-88
2021/06/05 03:58:44;;;;;;;39.42;30.92;;;15.70;99.90;;;;;;5053729;28;20037;-88
2021/06/05 04:01:36;;;;;;;37.33;31.02;;;15.70;99.90;;;;;;5053338;28;20024;-87
2021/06/05 04:04:03;;;;;;;42.85;31.83;;;15.60;99.90;;;;;;5052284;28;20033;-88
2021/06/05 04:06:29;;;;;;;40.85;30.92;;;15.70;99.90;;;;;;5052962;28;20048;-87
2021/06/05 04:08:56;;;;;;;40.85;29.67;;;15.70;99.90;;;;;;5052788;28;20032;-88
2021/06/05 04:11:23;;;;;;;50.72;31.48;;;15.60;99.90;;;;;;5052641;28;20033;-88
2021/06/05 04:13:48;;;;;;;40.92;30.23;;;15.60;99.90;;;;;;5052926;28;20470;-88
2021/06/05 04:16:15;;;;;;;40.65;30.13;;;15.70;99.90;;;;;;5052942;28;20116;-87
2021/06/05 04:18:42;;;;;;;39.97;28.08;;;15.80;99.90;;;;;;5053010;28;20167;-87
2021/06/05 04:21:11;;;;;;;44.47;27.30;;;15.80;99.90;;;;;;5053315;28;20029;-88
2021/06/05 04:23:38;;;;;;;38.28;28.02;;;15.70;99.90;;;;;;5052833;28;20092;-88
2021/06/05 04:26:06;;;;;;;41.08;26.10;;;15.60;99.90;;;;;;5052507;28;20407;-88
2021/06/05 04:28:33;;;;;;;39.63;26.63;;;15.50;99.90;;;;;;5052307;28;20112;-88
2021/06/05 04:30:59;;;;;;;36.47;26.00;;;15.50;99.90;;;;;;5054062;28;20028;-88
2021/06/05 04:33:26;;;;;;;37.40;27.48;;;15.60;99.90;;;;;;5052696;28;20029;-87
2021/06/05 04:35:54;;;;;;;32.85;26.38;;;15.60;99.90;;;;;;5053466;28;20025;-89
2021/06/05 04:38:20;;;;;;;40.85;27.45;;;15.70;99.90;;;;;;5053816;28;20053;-89
2021/06/05 04:40:47;;;;;;;37.40;26.85;;;15.70;99.90;;;;;;5052739;28;20032;-89
2021/06/05 04:43:14;;;;;;;36.50;25.23;;;15.80;99.90;;;;;;5053292;28;20029;-88
2021/06/05 04:45:41;;;;;;;39.20;25.63;;;15.70;99.90;;;;;;5052694;28;20871;-89
2021/06/05 04:48:08;;;;;;;34.60;24.40;;;15.80;99.90;;;;;;5054534;28;20768;-89
2021/06/05 04:50:35;;;;;;;33.25;24.40;;;15.70;99.90;;;;;;5057325;28;20082;-89
2021/06/05 04:53:01;;;;;;;32.60;24.80;;;15.60;99.90;;;;;;5057874;28;20040;-89
2021/06/05 04:55:27;;;;;;;35.85;23.63;;;15.70;99.90;;;;;;5056383;28;20108;-88
2021/06/05 04:57:54;;;;;;;34.25;23.70;;;15.70;99.90;;;;;;5057355;28;20095;-87
2021/06/05 05:00:39;;;;;;;36.65;24.30;;;15.70;99.90;;;;;;5056144;28;20387;-88
2021/06/05 05:03:06;;;;;;;30.10;23.35;;;15.70;99.90;;;;;;5056478;28;20134;-87
2021/06/05 05:05:32;;;;;;;33.90;24.15;;;15.70;99.90;;;;;;5058115;28;20040;-89
2021/06/05 05:07:59;;;;;;;30.65;24.08;;;15.70;99.90;;;;;;5057428;28;20027;-88
2021/06/05 05:10:29;;;;;;;27.40;22.70;;;15.70;99.90;;;;;;5056709;28;20551;-88
2021/06/05 05:12:55;;;;;;;29.38;22.17;;;15.80;99.90;;;;;;5058808;28;20025;-88
2021/06/05 05:15:21;;;;;;;27.98;22.10;;;15.90;99.90;;;;;;5056296;28;20517;-86
2021/06/05 05:17:47;;;;;;;33.80;21.98;;;15.90;99.90;;;;;;5056721;28;20026;-88
2021/06/05 05:20:15;;;;;;;29.05;23.40;;;16.00;99.90;;;;;;5056624;28;20087;-88
2021/06/05 05:22:42;;;;;;;30.25;24.20;;;15.80;99.90;;;;;;5057359;28;20482;-88
2021/06/05 05:25:09;;;;;;;30.15;23.92;;;15.80;99.90;;;;;;5056259;28;20044;-88
2021/06/05 05:27:35;;;;;;;33.50;24.55;;;15.80;99.90;;;;;;5055727;28;20120;-89
2021/06/05 05:30:02;;;;;;;32.45;25.50;;;15.80;99.90;;;;;;5055642;28;20025;-88
2021/06/05 05:32:27;;;;;;;39.25;28.98;;;15.80;99.90;;;;;;5056912;28;20413;-90
2021/06/05 05:34:53;;;;;;;39.63;30.58;;;15.80;99.90;;;;;;5055312;28;20021;-89
2021/06/05 05:37:19;;;;;;;42.28;31.45;;;15.80;99.90;;;;;;5055626;28;20033;-88
2021/06/05 05:39:44;;;;;;;41.80;31.17;;;15.80;99.90;;;;;;5056345;28;20028;-88
2021/06/05 05:42:10;;;;;;;43.10;32.55;;;15.90;99.90;;;;;;5055352;28;20367;-88
2021/06/05 05:44:35;;;;;;;41.80;32.22;;;15.80;99.90;;;;;;5055691;28;20025;-88
2021/06/05 05:47:01;;;;;;;43.05;32.65;;;15.90;99.90;;;;;;5058310;28;20033;-87
2021/06/05 05:49:27;;;;;;;40.20;32.22;;;15.90;99.90;;;;;;5057075;28;20025;-88
2021/06/05 05:51:53;;;;;;;44.60;33.13;;;15.90;99.90;;;;;;5055514;28;20429;-89
2021/06/05 05:54:18;;;;;;;47.47;34.65;;;15.80;99.90;;;;;;5055217;28;20029;-88
2021/06/05 05:56:44;;;;;;;41.45;33.15;;;15.80;99.90;;;;;;5056322;28;20089;-89
2021/06/05 05:59:15;;;;;;;43.00;34.08;;;15.80;99.90;;;;;;5055051;28;20119;-88
2021/06/05 06:01:41;;;;;;;44.90;34.63;;;15.70;99.90;;;;;;5054795;28;20505;-88
2021/06/05 06:04:06;;;;;;;45.05;34.33;;;15.80;99.90;;;;;;5056423;28;20025;-88
2021/06/05 06:06:32;;;;;;;42.63;33.95;;;15.90;99.90;;;;;;5055027;28;20029;-88
2021/06/05 06:08:58;;;;;;;41.70;34.05;;;15.90;99.90;;;;;;5054850;28;20534;-89
2021/06/05 06:11:25;;;;;;;38.72;31.65;;;15.80;99.90;;;;;;5056290;28;20033;-89
2021/06/05 06:13:51;;;;;;;39.72;31.05;;;15.80;99.90;;;;;;5055476;28;20024;-88
2021/06/05 06:16:18;;;;;;;40.28;31.67;;;15.80;99.90;;;;;;5055278;28;20021;-89
2021/06/05 06:18:45;;;;;;;35.33;29.90;;;15.80;99.90;;;;;;5055853;28;20025;-88
2021/06/05 06:21:14;;;;;;;35.88;29.50;;;15.80;99.90;;;;;;5054987;28;20025;-89
2021/06/05 06:23:41;;;;;;;34.47;29.45;;;15.80;99.90;;;;;;5053900;28;20049;-89
2021/06/05 06:26:14;;;;;;;36.05;28.80;;;15.70;99.90;;;;;;5055280;28;20369;-87
2021/06/05 06:28:41;;;;;;;32.65;28.08;;;15.70;99.90;;;;;;5055124;28;20056;-89
2021/06/05 06:31:08;;;;;;;33.58;28.45;;;15.80;99.90;;;;;;5054751;28;20724;-88
2021/06/05 06:33:34;;;;;;;31.85;28.30;;;15.70;99.90;;;;;;5054788;28;20029;-88
2021/06/05 06:36:00;;;;;;;33.47;28.85;;;15.80;99.90;;;;;;5053930;28;20067;-89
2021/06/05 06:38:47;;;;;;;33.63;28.55;;;15.90;99.90;;;;;;5053694;28;20029;-89
2021/06/05 06:41:16;;;;;;;34.03;29.42;;;15.90;99.90;;;;;;5055387;28;20594;-88
2021/06/05 06:43:43;;;;;;;35.95;28.85;;;16.00;99.90;;;;;;5054928;28;20036;-89
2021/06/05 06:46:13;;;;;;;34.55;27.63;;;16.00;99.90;;;;;;5055370;28;20025;-88
2021/06/05 06:48:39;;;;;;;32.47;27.75;;;15.90;99.90;;;;;;5055282;28;20167;-88
2021/06/05 06:51:05;;;;;;;32.13;27.38;;;16.00;99.90;;;;;;5054232;28;20025;-88
2021/06/05 06:53:32;;;;;;;33.63;29.17;;;16.00;99.90;;;;;;5055352;28;20147;-88
2021/06/05 06:55:58;;;;;;;34.13;28.88;;;16.00;99.90;;;;;;5054380;28;20029;-89
2021/06/05 06:58:24;;;;;;;36.13;29.85;;;16.00;99.90;;;;;;5054522;28;20127;-89
2021/06/05 07:00:50;;;;;;;32.22;28.80;;;16.00;99.90;;;;;;5054929;28;20112;-88
2021/06/05 07:03:16;;;;;;;35.50;29.63;;;15.90;99.90;;;;;;5054571;28;20482;-89
2021/06/05 07:05:42;;;;;;;35.30;29.85;;;15.90;99.90;;;;;;5054781;28;20112;-88
2021/06/05 07:08:10;;;;;;;33.70;29.90;;;16.10;99.90;;;;;;5055329;28;20027;-89
2021/06/05 07:10:37;;;;;;;35.88;30.30;;;16.00;99.90;;;;;;5053565;28;20389;-88
2021/06/05 07:13:03;;;;;;;35.70;29.42;;;16.10;99.90;;;;;;5053562;28;20021;-88
2021/06/05 07:15:29;;;;;;;33.10;28.30;;;16.10;99.90;;;;;;5054146;28;20017;-87
2021/06/05 07:17:55;;;;;;;31.27;27.90;;;16.20;99.90;;;;;;5054497;28;20089;-88
2021/06/05 07:20:20;;;;;;;31.00;26.30;;;16.30;99.90;;;;;;5055197;28;20032;-88
2021/06/05 07:22:46;;;;;;;26.95;23.67;;;16.40;99.90;;;;;;5054292;28;20025;-88
2021/06/05 07:25:12;;;;;;;26.10;23.30;;;16.50;99.90;;;;;;5054265;28;20049;-89
2021/06/05 07:27:37;;;;;;;25.98;22.80;;;16.40;99.90;;;;;;5053109;28;20070;-89
2021/06/05 07:30:05;;;;;;;28.30;23.70;;;16.30;99.90;;;;;;5054219;28;20037;-89
2021/06/05 07:32:30;;;;;;;25.63;22.85;;;16.30;99.90;;;;;;5054736;28;20113;-89
2021/06/05 07:34:56;;;;;;;26.45;23.60;;;16.40;99.90;;;;;;5053092;28;20056;-88
2021/06/05 07:37:23;;;;;;;23.33;20.70;;;16.50;99.90;;;;;;5053704;28;20025;-88
2021/06/05 07:39:49;;;;;;;22.75;20.35;;;16.60;99.90;;;;;;5053863;28;20416;-90
2021/06/05 07:42:15;;;;;;;25.13;21.17;;;16.60;99.90;;;;;;5054312;28;20035;-89
2021/06/05 07:44:41;;;;;;;23.50;21.08;;;16.50;99.90;;;;;;5054383;28;20033;-88
2021/06/05 07:47:07;;;;;;;24.83;22.17;;;16.40;99.90;;;;;;5054499;28;20488;-88
2021/06/05 07:49:36;;;;;;;25.70;22.98;;;16.50;99.90;;;;;;5054702;28;20079;-89
2021/06/05 07:52:05;;;;;;;27.50;22.60;;;16.50;99.90;;;;;;5052708;28;20588;-89
2021/06/05 07:54:31;;;;;;;27.60;22.83;;;16.40;99.90;;;;;;5053904;28;20610;-89
2021/06/05 07:56:57;;;;;;;27.80;24.33;;;16.50;99.90;;;;;;5053109;28;20028;-89
2021/06/05 07:59:25;;;;;;;29.20;22.63;;;16.50;99.90;;;;;;5053804;28;20028;-88
2021/06/05 08:01:51;;;;;;;25.50;22.48;;;16.40;99.90;;;;;;5053801;28;20029;-89
2021/06/05 08:04:17;;;;;;;24.55;21.92;;;16.40;99.90;;;;;;5054278;28;20495;-89
2021/06/05 08:06:45;;;;;;;25.88;22.85;;;16.30;99.90;;;;;;5053421;28;20049;-88
2021/06/05 08:09:10;;;;;;;26.77;23.50;;;16.40;99.90;;;;;;5052172;28;20082;-88
2021/06/05 08:11:37;;;;;;;24.15;21.75;;;16.50;99.90;;;;;;5052629;28;20413;-89
2021/06/05 08:14:04;;;;;;;25.27;22.70;;;16.50;99.90;;;;;;5052807;28;20036;-88
2021/06/05 08:16:31;;;;;;;24.25;21.58;;;16.50;99.90;;;;;;5053618;28;20358;-90
2021/06/05 08:18:56;;;;;;;24.20;21.50;;;16.30;99.90;;;;;;5053205;28;20028;-87
2021/06/05 08:21:22;;;;;;;24.35;21.02;;;16.30;99.90;;;;;;5052761;28;20025;-88
2021/06/05 08:23:48;;;;;;;23.23;20.70;;;16.30;99.90;;;;;;5055725;28;20044;-88
2021/06/05 08:26:17;;;;;;;24.33;21.27;;;16.30;99.90;;;;;;5057713;28;20485;-88
2021/06/05 08:28:44;;;;;;;25.35;21.38;;;16.20;99.90;;;;;;5057066;28;20028;-88
2021/06/05 08:31:13;;;;;;;25.15;21.15;;;16.40;99.90;;;;;;5057914;28;20029;-88
2021/06/05 08:33:39;;;;;;;24.75;20.67;;;16.60;99.90;;;;;;5056611;28;20027;-88
2021/06/05 08:36:06;;;;;;;26.17;21.48;;;16.60;99.90;;;;;;5057668;28;20022;-88
2021/06/05 08:38:33;;;;;;;27.42;21.95;;;16.40;99.90;;;;;;5056811;28;20025;-89
2021/06/05 08:41:24;;;;;;;25.23;22.50;;;16.30;99.90;;;;;;5056945;28;20025;-89
2021/06/05 08:43:54;;;;;;;28.17;22.23;;;16.20;99.90;;;;;;5057628;28;20048;-89
2021/06/05 08:46:27;;;;;;;30.27;22.80;;;16.20;99.90;;;;;;5056436;28;20025;-88
2021/06/05 08:48:53;;;;;;;27.35;24.02;;;16.10;99.90;;;;;;5056907;28;20024;-89
2021/06/05 08:51:25;;;;;;;27.50;23.88;;;16.00;99.90;;;;;;5056547;28;20029;-90
2021/06/05 08:53:53;;;;;;;27.25;23.17;;;15.90;99.90;;;;;;5058078;28;20478;-89
2021/06/05 08:56:26;;;;;;;25.08;22.48;;;15.90;99.90;;;;;;5056456;28;20524;-89
2021/06/05 08:58:57;;;;;;;25.10;22.45;;;16.00;99.90;;;;;;5057386;28;20056;-90
2021/06/05 09:01:28;;;;;;;26.58;22.10;;;15.90;99.90;;;;;;5058277;28;20029;-88
2021/06/05 09:04:01;;;;;;;25.67;21.27;;;16.00;99.90;;;;;;5056447;28;20035;-88
2021/06/05 09:06:50;;;;;;;25.38;22.65;;;16.00;99.90;;;;;;5056043;28;20029;-87
2021/06/05 09:09:21;;;;;;;22.42;19.90;;;16.00;99.90;;;;;;5056572;28;20029;-88
2021/06/05 09:11:48;;;;;;;23.35;19.08;;;16.00;99.90;;;;;;5056368;28;20025;-88
2021/06/05 09:14:14;;;;;;;20.60;18.10;;;16.10;99.90;;;;;;5056674;28;20097;-88
2021/06/05 09:16:47;;;;;;;21.52;18.30;;;16.10;99.90;;;;;;5058186;28;20485;-88
2021/06/05 09:19:29;;;;;;;24.42;17.92;;;16.10;99.90;;;;;;5057950;28;20522;-87
2021/06/05 09:22:07;;;;;;;23.17;18.42;;;16.20;99.90;;;;;;5056549;28;20493;-89
2021/06/05 09:24:39;;;;;;;21.02;18.58;;;16.00;99.90;;;;;;5056230;28;20047;-88
2021/06/05 09:27:17;;;;;;;21.88;19.30;;;16.10;99.90;;;;;;5056658;28;20029;-89
2021/06/05 09:30:00;;;;;;;24.67;20.80;;;16.10;99.90;;;;;;5055383;28;20036;-89
2021/06/05 09:32:57;;;;;;;25.65;21.85;;;16.10;99.90;;;;;;5056921;28;20033;-89
2021/06/05 09:35:46;;;;;;;28.00;23.58;;;16.10;99.90;;;;;;5055431;28;20027;-88
2021/06/05 09:38:24;;;;;;;30.60;23.58;;;16.20;99.90;;;;;;5057162;28;20032;-88
2021/06/05 09:41:08;;;;;;;28.85;20.10;;;16.30;99.90;;;;;;5056172;28;20021;-88
2021/06/05 09:43:35;;;;;;;24.13;18.65;;;16.30;99.90;;;;;;5056300;28;20029;-89
2021/06/05 09:46:27;;;;;;;24.73;18.17;;;16.10;99.90;;;;;;5056102;28;20025;-89
2021/06/05 09:49:09;;;;;;;23.30;17.33;;;16.00;99.90;;;;;;5056268;28;20492;-89
2021/06/05 09:51:39;;;;;;;26.83;18.77;;;16.00;99.90;;;;;;5055373;28;20063;-89
2021/06/05 09:54:42;;;;;;;24.17;17.98;;;16.00;99.90;;;;;;5056233;28;20259;-89
2021/06/05 09:57:31;;;;;;;21.35;15.52;;;15.80;99.90;;;;;;5018702;28;20449;-90
2021/06/05 10:00:22;;;;;;;21.08;15.40;;;15.70;99.90;;;;;;5070742;28;20025;-90
2021/06/05 10:02:51;;;;;;;17.42;13.40;;;15.70;99.90;;;;;;5055457;28;20385;-90
2021/06/05 10:05:28;;;;;;;18.15;13.70;;;15.80;99.90;;;;;;5056261;28;20025;-90
2021/06/05 10:07:56;;;;;;;16.50;14.07;;;15.80;99.90;;;;;;5055243;28;20024;-90
2021/06/05 10:10:41;;;;;;;16.65;13.38;;;15.70;99.90;;;;;;5056391;28;20456;-90
2021/06/05 10:13:20;;;;;;;16.65;13.55;;;15.70;99.90;;;;;;5055207;28;20036;-90
2021/06/05 10:15:56;;;;;;;17.23;13.18;;;15.90;99.90;;;;;;5055103;28;20036;-89
2021/06/05 10:18:32;;;;;;;16.02;12.07;;;16.00;99.90;;;;;;5055498;28;20017;-89
2021/06/05 10:21:37;;;;;;;13.00;10.10;;;16.10;99.90;;;;;;5055616;28;20032;-88
2021/06/05 10:24:27;;;;;;;13.18;10.40;;;16.20;99.90;;;;;;5044102;28;20037;-89
2021/06/05 10:26:55;;;;;;;14.23;11.18;;;16.10;99.90;;;;;;5056375;28;20025;-90
2021/06/05 10:29:28;;;;;;;12.73;10.40;;;16.00;99.90;;;;;;5054198;28;20031;-90
2021/06/05 10:31:55;;;;;;;14.88;10.52;;;16.10;99.90;;;;;;5054742;28;20043;-89
2021/06/05 10:34:45;;;;;;;16.00;11.07;;;16.10;99.90;;;;;;5054876;28;20017;-90
2021/06/05 10:37:18;;;;;;;14.98;11.50;;;16.10;99.90;;;;;;5054942;28;20039;-89
2021/06/05 10:39:46;;;;;;;15.70;11.25;;;16.20;99.90;;;;;;5055294;28;20144;-89
2021/06/05 10:42:27;;;;;;;15.65;10.85;;;16.20;99.90;;;;;;5057446;28;20481;-89
2021/06/05 10:44:55;;;;;;;15.27;10.68;;;16.30;99.90;;;;;;5053673;28;20434;-89
2021/06/05 10:47:28;;;;;;;16.95;11.07;;;16.40;99.90;;;;;;5055352;28;20481;-88
2021/06/05 10:50:00;;;;;;;15.70;10.25;;;16.60;99.90;;;;;;5055934;28;20056;-88
2021/06/05 10:52:53;;;;;;;19.10;11.70;;;16.70;99.90;;;;;;5054827;28;20036;-89
2021/06/05 10:55:35;;;;;;;14.13;10.25;;;16.70;99.90;;;;;;5054271;28;20036;-89
2021/06/05 10:58:24;;;;;;;18.52;11.15;;;16.80;99.90;;;;;;5054318;28;20028;-89
2021/06/05 11:01:00;;;;;;;17.15;11.48;;;16.70;99.90;;;;;;5054972;28;20050;-89
2021/06/05 11:03:26;;;;;;;17.08;11.95;;;16.70;99.90;;;;;;5054226;28;20029;-90
2021/06/05 11:06:07;;;;;;;17.92;12.32;;;16.50;99.90;;;;;;5054390;28;20173;-89
2021/06/05 11:08:48;;;;;;;14.25;11.43;;;16.60;99.90;;;;;;5054983;28;20029;-89
2021/06/05 11:11:33;;;;;;;16.95;11.90;;;16.80;99.90;;;;;;5054896;28;20029;-90
2021/06/05 11:14:01;;;;;;;17.27;12.52;;;16.70;99.90;;;;;;5055927;28;20017;-89
2021/06/05 11:16:57;;;;;;;15.85;11.73;;;16.70;99.90;;;;;;5054347;28;20025;-89
2021/06/05 11:19:42;;;;;;;17.02;11.50;;;16.60;99.90;;;;;;5053618;28;20389;-89
2021/06/05 11:22:14;;;;;;;16.60;11.13;;;16.80;99.90;;;;;;5054589;28;20025;-88
2021/06/05 11:24:43;;;;;;;15.95;11.30;;;16.70;99.90;;;;;;5053829;28;20448;-88
2021/06/05 11:27:37;;;;;;;18.13;11.82;;;16.70;99.90;;;;;;5053590;28;20060;-88
2021/06/05 11:30:21;;;;;;;17.63;11.23;;;16.70;99.90;;;;;;5054191;28;20029;-89
2021/06/05 11:32:53;;;;;;;17.40;11.93;;;16.80;99.90;;;;;;5055358;28;20037;-89
2021/06/05 11:35:53;;;;;;;21.73;12.00;;;16.70;99.90;;;;;;5053692;28;20102;-89
2021/06/05 11:38:19;;;;;;;23.85;12.32;;;16.80;99.90;;;;;;5053299;28;20021;-88
2021/06/05 11:40:50;;;;;;;28.38;12.68;;;16.80;99.90;;;;;;5055101;28;20025;-88
2021/06/05 11:43:28;;;;;;;17.80;11.80;;;16.50;99.90;;;;;;5053494;28;20108;-88
2021/06/05 11:46:05;;;;;;;18.27;12.20;;;16.60;99.90;;;;;;5053754;28;20044;-88
2021/06/05 11:49:00;;;;;;;16.23;12.00;;;16.60;99.90;;;;;;5054246;28;20052;-88
2021/06/05 11:51:42;;;;;;;23.20;13.00;;;16.60;99.90;;;;;;5054101;28;20505;-89
2021/06/05 11:54:11;;;;;;;20.90;13.20;;;16.50;99.90;;;;;;5054399;28;20028;-89
2021/06/05 11:56:46;;;;;;;17.45;12.82;;;16.60;99.90;;;;;;5054456;28;20032;-88
2021/06/05 11:59:33;;;;;;;16.40;12.27;;;16.70;99.90;;;;;;5053756;28;20025;-89
2021/06/05 12:02:10;;;;;;;18.20;12.25;;;16.80;99.90;;;;;;5054458;28;20106;-88
2021/06/05 12:04:43;;;;;;;16.75;12.38;;;17.20;99.90;;;;;;5054172;28;20028;-88
2021/06/05 12:07:24;;;;;;;20.02;13.30;;;17.50;99.90;;;;;;5053605;28;20112;-88
2021/06/05 12:09:55;;;;;;;17.88;12.48;;;17.40;99.90;;;;;;5053144;28;20504;-89
2021/06/05 12:12:24;;;;;;;17.88;12.57;;;17.40;99.90;;;;;;5053782;28;20029;-88
2021/06/05 12:14:56;;;;;;;17.73;12.68;;;17.30;99.90;;;;;;5054558;28;20029;-88
2021/06/05 12:17:29;;;;;;;17.08;12.55;;;17.50;99.90;;;;;;5053765;28;20028;-89
2021/06/05 12:20:15;;;;;;;15.73;12.20;;;17.70;99.90;;;;;;5054527;28;20082;-89
2021/06/05 12:22:44;;;;;;;14.23;11.55;;;18.10;99.90;;;;;;5070207;28;20064;-89
2021/06/05 12:25:28;;;;;;;14.35;11.00;;;18.30;99.90;;;;;;5074149;28;20488;-89
2021/06/05 12:28:08;;;;;;;16.98;11.38;;;18.20;99.90;;;;;;5072958;28;20493;-89
2021/06/05 12:30:39;;;;;;;18.20;11.73;;;18.00;99.90;;;;;;5073095;28;20025;-86
2021/06/05 12:33:07;;;;;;;15.15;11.75;;;18.00;99.90;;;;;;5073003;28;20311;-89
2021/06/05 12:35:35;;;;;;;11.82;9.80;;;18.00;99.90;;;;;;5075183;28;20074;-89
2021/06/05 12:38:01;;;;;;;14.98;9.90;;;18.00;99.90;;;;;;5074858;28;20035;-88
2021/06/05 12:40:42;;;;;;;9.60;8.15;;;18.60;99.90;;;;;;5073082;28;20025;-88
2021/06/05 12:43:11;;;;;;;9.50;8.40;;;19.00;99.90;;;;;;5073125;28;20024;-88
2021/06/05 12:45:37;;;;;;;10.73;8.15;;;19.40;99.90;;;;;;5072478;28;20111;-88